Time;durP1;ratioP1;P1;durP2;ratioP2;P2;SDS_P1;SDS_P2;PMS_P1;PMS_P2;Temp;Humidity;BMP_temperature;BMP_pressure;BME280_temperature;BME280_humidity;BME280_pressure;Samples;Min_cycle;Max_cycle;Signal;HPM_P1;HPM_P2
2022/12/07 00:01:38;;;;;;;5.10;1.60;;;;;;;;;;5117219;27;20114;-71
2022/12/07 00:04:05;;;;;;;2.38;1.27;;;;;;;;;;5105887;27;20035;-72
2022/12/07 00:06:52;;;;;;;5.75;1.35;;;;;;;;;;5125928;27;20488;-72
2022/12/07 00:09:19;;;;;;;10.35;2.03;;;;;;;;;;5124123;27;20031;-72
2022/12/07 00:11:45;;;;;;;2.70;1.17;;;;;;;;;;5107731;28;20042;-72
2022/12/07 00:14:12;;;;;;;3.88;1.38;;;;;;;;;;5090105;28;20488;-72
2022/12/07 00:16:39;;;;;;;5.13;1.27;;;;;;;;;;5118026;28;20465;-72
2022/12/07 00:19:05;;;;;;;7.30;1.80;;;;;;;;;;5105943;28;20042;-71
2022/12/07 00:21:33;;;;;;;9.27;1.73;;;;;;;;;;5119442;28;20434;-72
2022/12/07 00:23:59;;;;;;;6.00;1.17;;;;;;;;;;5106754;28;20429;-71
2022/12/07 00:26:27;;;;;;;13.48;2.28;;;;;;;;;;5104035;28;20047;-72
2022/12/07 00:28:54;;;;;;;6.13;1.40;;;;;;;;;;5110849;27;20877;-71
2022/12/07 00:31:22;;;;;;;5.82;1.77;;;;;;;;;;5113776;27;20042;-71
2022/12/07 00:33:48;;;;;;;4.80;1.20;;;;;;;;;;5113043;27;20512;-71
2022/12/07 00:36:16;;;;;;;5.30;1.95;;;;;;;;;;5122325;27;20047;-72
2022/12/07 00:38:42;;;;;;;4.45;1.70;;;;;;;;;;5125609;27;20056;-72
2022/12/07 00:41:12;;;;;;;6.55;1.70;;;;;;;;;;5121989;27;20499;-72
2022/12/07 00:43:39;;;;;;;7.18;2.22;;;;;;;;;;5120254;27;20032;-73
2022/12/07 00:46:05;;;;;;;5.32;2.17;;;;;;;;;;5104983;27;20099;-72
2022/12/07 00:48:31;;;;;;;4.03;1.48;;;;;;;;;;5108814;27;20050;-72
2022/12/07 00:50:57;;;;;;;8.73;2.60;;;;;;;;;;5121372;27;20043;-72
2022/12/07 00:53:24;;;;;;;12.07;2.08;;;;;;;;;;5125570;27;20031;-72
2022/12/07 00:55:50;;;;;;;6.47;1.65;;;;;;;;;;5090698;27;20122;-73
2022/12/07 00:58:16;;;;;;;3.67;1.33;;;;;;;;;;5119654;27;20039;-72
2022/12/07 01:00:43;;;;;;;4.15;1.98;;;;;;;;;;5128250;27;20039;-73
2022/12/07 01:03:11;;;;;;;5.90;1.95;;;;;;;;;;5121334;27;20492;-72
2022/12/07 01:05:37;;;;;;;11.90;2.63;;;;;;;;;;5104727;27;20040;-71
2022/12/07 01:08:03;;;;;;;13.98;2.03;;;;;;;;;;5122200;27;20035;-72
2022/12/07 01:10:31;;;;;;;3.92;1.45;;;;;;;;;;5124462;27;20489;-72
2022/12/07 01:12:57;;;;;;;9.68;2.10;;;;;;;;;;5121814;27;20035;-72
2022/12/07 01:15:24;;;;;;;5.00;1.45;;;;;;;;;;5120719;27;20046;-72
2022/12/07 01:17:50;;;;;;;8.73;2.55;;;;;;;;;;5116150;27;20585;-72
2022/12/07 01:20:17;;;;;;;7.00;1.70;;;;;;;;;;5125872;27;20687;-72
2022/12/07 01:22:44;;;;;;;5.25;2.08;;;;;;;;;;5129009;27;20423;-72
2022/12/07 01:25:11;;;;;;;7.13;1.90;;;;;;;;;;5109480;27;20604;-72
2022/12/07 01:27:38;;;;;;;4.82;2.30;;;;;;;;;;5128418;27;20082;-72
2022/12/07 01:30:07;;;;;;;5.28;1.92;;;;;;;;;;5125416;27;20609;-72
2022/12/07 01:32:33;;;;;;;5.63;1.55;;;;;;;;;;5124295;27;20050;-72
2022/12/07 01:35:00;;;;;;;5.13;1.63;;;;;;;;;;5121541;27;20085;-71
2022/12/07 01:37:26;;;;;;;4.18;1.45;;;;;;;;;;5118888;27;20086;-72
2022/12/07 01:39:52;;;;;;;6.45;1.42;;;;;;;;;;5092140;27;20051;-71
2022/12/07 01:42:18;;;;;;;2.85;1.23;;;;;;;;;;5125755;27;20499;-72
2022/12/07 01:45:03;;;;;;;4.47;1.50;;;;;;;;;;5114315;27;20093;-72
2022/12/07 01:47:29;;;;;;;4.53;1.45;;;;;;;;;;5123006;27;20039;-72
2022/12/07 01:49:55;;;;;;;4.00;1.20;;;;;;;;;;5123743;27;20417;-71
2022/12/07 01:52:27;;;;;;;11.32;2.00;;;;;;;;;;5128145;27;20088;-72
2022/12/07 01:54:55;;;;;;;3.03;1.02;;;;;;;;;;5108579;27;20092;-71
2022/12/07 01:57:21;;;;;;;4.40;1.23;;;;;;;;;;5128477;27;20045;-72
2022/12/07 01:59:49;;;;;;;6.35;1.40;;;;;;;;;;5115258;27;20032;-72
2022/12/07 02:02:20;;;;;;;4.97;1.63;;;;;;;;;;5109327;27;20031;-73
2022/12/07 02:04:46;;;;;;;9.50;1.55;;;;;;;;;;5116645;27;20333;-72
2022/12/07 02:07:13;;;;;;;2.92;1.25;;;;;;;;;;5123560;27;20035;-72
2022/12/07 02:09:39;;;;;;;4.55;1.50;;;;;;;;;;5111105;27;20043;-71
2022/12/07 02:12:05;;;;;;;4.13;1.10;;;;;;;;;;5120501;27;20054;-71
2022/12/07 02:14:31;;;;;;;4.75;1.92;;;;;;;;;;5109455;27;20047;-73
2022/12/07 02:16:57;;;;;;;4.50;1.33;;;;;;;;;;5122309;27;20035;-71
2022/12/07 02:19:29;;;;;;;5.40;1.60;;;;;;;;;;5121480;27;20039;-71
2022/12/07 02:22:04;;;;;;;8.57;1.30;;;;;;;;;;5120649;27;20063;-72
2022/12/07 02:24:49;;;;;;;3.97;1.27;;;;;;;;;;5105235;27;20040;-71
2022/12/07 02:27:20;;;;;;;7.65;1.88;;;;;;;;;;5119139;27;20042;-71
2022/12/07 02:30:13;;;;;;;7.25;2.20;;;;;;;;;;5127096;27;20067;-71
2022/12/07 02:32:59;;;;;;;3.88;1.60;;;;;;;;;;5124448;27;20055;-71
2022/12/07 02:35:40;;;;;;;6.82;2.00;;;;;;;;;;5122802;27;20062;-71
2022/12/07 02:38:15;;;;;;;18.60;3.38;;;;;;;;;;5123381;27;20114;-71
2022/12/07 02:40:44;;;;;;;6.55;1.90;;;;;;;;;;5126047;27;20036;-71
2022/12/07 02:43:13;;;;;;;22.30;2.30;;;;;;;;;;5127946;27;20777;-71
2022/12/07 02:45:40;;;;;;;10.35;2.05;;;;;;;;;;5126131;27;20039;-71
2022/12/07 02:48:08;;;;;;;7.55;1.90;;;;;;;;;;5124783;27;20535;-71
2022/12/07 02:50:34;;;;;;;3.72;1.10;;;;;;;;;;5125290;27;20035;-71
2022/12/07 02:53:00;;;;;;;2.40;1.13;;;;;;;;;;5124612;27;20045;-71
2022/12/07 02:55:29;;;;;;;6.43;1.08;;;;;;;;;;5115071;27;20556;-71
2022/12/07 02:58:06;;;;;;;6.50;1.20;;;;;;;;;;5125040;27;20039;-71
2022/12/07 03:00:39;;;;;;;3.10;1.40;;;;;;;;;;5119140;27;20036;-71
2022/12/07 03:03:10;;;;;;;4.45;1.50;;;;;;;;;;5101626;27;20062;-71
2022/12/07 03:05:39;;;;;;;3.90;1.15;;;;;;;;;;5123294;27;20043;-72
2022/12/07 03:08:11;;;;;;;2.45;1.20;;;;;;;;;;5106142;28;20043;-72
2022/12/07 03:10:40;;;;;;;9.30;1.60;;;;;;;;;;5122669;27;20061;-71
2022/12/07 03:13:23;;;;;;;5.22;1.60;;;;;;;;;;5119933;27;20484;-71
2022/12/07 03:16:00;;;;;;;6.20;1.60;;;;;;;;;;5123487;27;20093;-71
2022/12/07 03:18:28;;;;;;;9.73;2.15;;;;;;;;;;5127433;27;20524;-72
2022/12/07 03:20:57;;;;;;;3.65;1.50;;;;;;;;;;5128013;27;20127;-71
2022/12/07 03:23:24;;;;;;;4.55;1.63;;;;;;;;;;5122445;27;20035;-72
2022/12/07 03:25:52;;;;;;;3.38;1.77;;;;;;;;;;5125727;27;20039;-71
2022/12/07 03:28:22;;;;;;;5.38;1.77;;;;;;;;;;5100210;28;20100;-72
2022/12/07 03:31:00;;;;;;;3.72;1.80;;;;;;;;;;5120685;27;20485;-72
2022/12/07 03:33:32;;;;;;;8.25;2.20;;;;;;;;;;5122734;27;20523;-72
2022/12/07 03:36:05;;;;;;;10.88;2.20;;;;;;;;;;5121550;27;20397;-72
2022/12/07 03:39:00;;;;;;;11.20;1.83;;;;;;;;;;5106555;28;20039;-72
2022/12/07 03:41:31;;;;;;;3.58;1.45;;;;;;;;;;5067874;28;20143;-71
2022/12/07 03:44:00;;;;;;;4.93;1.60;;;;;;;;;;5109848;27;20392;-71
2022/12/07 03:46:26;;;;;;;4.75;1.63;;;;;;;;;;5106879;28;20572;-71
2022/12/07 03:49:04;;;;;;;10.68;2.58;;;;;;;;;;5100566;27;20047;-71
2022/12/07 03:51:50;;;;;;;4.70;1.60;;;;;;;;;;5086151;27;20039;-71
2022/12/07 03:54:16;;;;;;;10.10;1.63;;;;;;;;;;5117408;27;20035;-71
2022/12/07 03:56:44;;;;;;;5.30;1.67;;;;;;;;;;5114853;27;20698;-71
2022/12/07 03:59:12;;;;;;;9.10;1.75;;;;;;;;;;5118312;27;20493;-69
2022/12/07 04:01:38;;;;;;;7.55;1.63;;;;;;;;;;5108877;28;20373;-71
2022/12/07 04:04:04;;;;;;;9.80;2.05;;;;;;;;;;5108852;27;20046;-71
2022/12/07 04:06:30;;;;;;;4.90;1.98;;;;;;;;;;5119873;27;20036;-71
2022/12/07 04:08:56;;;;;;;7.40;1.88;;;;;;;;;;5123364;27;20039;-71
2022/12/07 04:11:22;;;;;;;8.27;2.05;;;;;;;;;;5124529;27;20039;-71
2022/12/07 04:16:33;;;;;;;7.82;2.22;;;;;;;;;;5107095;28;20442;-71
2022/12/07 04:18:59;;;;;;;8.85;1.67;;;;;;;;;;5118502;28;20089;-71
2022/12/07 04:21:25;;;;;;;3.65;1.40;;;;;;;;;;5112275;28;20380;-71
2022/12/07 04:23:51;;;;;;;5.97;1.65;;;;;;;;;;5120354;28;20489;-71
2022/12/07 04:26:17;;;;;;;6.50;1.92;;;;;;;;;;5124752;28;20050;-71
2022/12/07 04:28:43;;;;;;;6.43;1.55;;;;;;;;;;5123271;28;20059;-71
2022/12/07 04:31:09;;;;;;;3.55;1.30;;;;;;;;;;5124371;28;20808;-71
2022/12/07 04:33:36;;;;;;;9.40;1.52;;;;;;;;;;5125469;28;20046;-72
2022/12/07 04:36:02;;;;;;;4.28;1.20;;;;;;;;;;5108316;28;20062;-71
2022/12/07 04:38:29;;;;;;;7.57;1.20;;;;;;;;;;5119906;28;20043;-71
2022/12/07 04:40:55;;;;;;;7.28;1.98;;;;;;;;;;5120815;28;20388;-72
2022/12/07 04:43:21;;;;;;;4.60;1.35;;;;;;;;;;5119969;28;20555;-71
2022/12/07 04:45:51;;;;;;;7.53;1.50;;;;;;;;;;5118146;28;20054;-71
2022/12/07 04:48:17;;;;;;;2.03;0.80;;;;;;;;;;5123588;28;20040;-71
2022/12/07 04:50:43;;;;;;;4.18;1.25;;;;;;;;;;5107980;28;20404;-71
2022/12/07 04:53:09;;;;;;;4.10;1.40;;;;;;;;;;5118221;28;20545;-71
2022/12/07 04:55:35;;;;;;;7.35;1.50;;;;;;;;;;5121095;28;20043;-72
2022/12/07 04:58:01;;;;;;;7.68;1.92;;;;;;;;;;5088899;28;20039;-71
2022/12/07 05:00:27;;;;;;;7.38;1.65;;;;;;;;;;5105554;28;20035;-71
2022/12/07 05:02:53;;;;;;;7.78;1.95;;;;;;;;;;5121200;28;20042;-71
2022/12/07 05:05:19;;;;;;;6.00;1.60;;;;;;;;;;5117471;28;20039;-71
2022/12/07 05:07:45;;;;;;;11.30;2.30;;;;;;;;;;5087616;28;20054;-71
2022/12/07 05:10:12;;;;;;;6.03;1.52;;;;;;;;;;5108735;28;20495;-72
2022/12/07 05:12:38;;;;;;;7.80;2.45;;;;;;;;;;5107662;27;20102;-71
2022/12/07 05:15:04;;;;;;;4.88;1.73;;;;;;;;;;5104063;28;20039;-71
2022/12/07 05:17:31;;;;;;;9.50;2.30;;;;;;;;;;5103222;27;20058;-71
2022/12/07 05:19:57;;;;;;;3.60;1.65;;;;;;;;;;5127055;27;20031;-71
2022/12/07 05:22:25;;;;;;;10.07;2.13;;;;;;;;;;5124644;27;20047;-72
2022/12/07 05:24:51;;;;;;;7.07;1.80;;;;;;;;;;5103455;27;20088;-71
2022/12/07 05:27:17;;;;;;;8.18;2.92;;;;;;;;;;5122001;27;21709;-72
2022/12/07 05:29:43;;;;;;;6.60;2.63;;;;;;;;;;5090770;27;20047;-71
2022/12/07 05:32:09;;;;;;;9.30;2.20;;;;;;;;;;5130019;27;20488;-71
2022/12/07 05:34:35;;;;;;;7.72;1.58;;;;;;;;;;5119904;27;20427;-71
2022/12/07 05:37:01;;;;;;;4.32;1.67;;;;;;;;;;5129036;27;20051;-73
2022/12/07 05:39:28;;;;;;;6.05;1.27;;;;;;;;;;5126730;27;20107;-71
2022/12/07 05:42:12;;;;;;;3.30;1.25;;;;;;;;;;5113072;27;20099;-71
2022/12/07 05:44:38;;;;;;;2.78;0.90;;;;;;;;;;5125135;27;20258;-71
2022/12/07 05:47:05;;;;;;;8.35;2.35;;;;;;;;;;5123367;27;20442;-71
2022/12/07 05:49:31;;;;;;;2.72;0.98;;;;;;;;;;5129272;27;20035;-71
2022/12/07 05:51:57;;;;;;;4.80;1.52;;;;;;;;;;5106148;27;20040;-71
2022/12/07 05:54:24;;;;;;;4.68;1.30;;;;;;;;;;5121067;27;20075;-71
2022/12/07 05:56:50;;;;;;;3.95;1.23;;;;;;;;;;5110290;27;20046;-71
2022/12/07 05:59:22;;;;;;;1.60;0.80;;;;;;;;;;5124586;27;20031;-71
2022/12/07 06:01:56;;;;;;;3.25;1.13;;;;;;;;;;5122344;27;20035;-71
2022/12/07 06:04:22;;;;;;;6.22;1.35;;;;;;;;;;5118808;27;20396;-71
2022/12/07 06:06:49;;;;;;;5.18;1.70;;;;;;;;;;5116228;27;20138;-71
2022/12/07 06:09:15;;;;;;;8.57;2.15;;;;;;;;;;5107116;27;20047;-71
2022/12/07 06:14:26;;;;;;;4.55;1.67;;;;;;;;;;5116096;27;20047;-71
2022/12/07 06:16:52;;;;;;;15.50;3.03;;;;;;;;;;5106374;28;20042;-71
2022/12/07 06:19:18;;;;;;;4.32;1.75;;;;;;;;;;5115318;27;20053;-71
2022/12/07 06:21:44;;;;;;;4.72;1.63;;;;;;;;;;5124737;27;20046;-71
2022/12/07 06:24:11;;;;;;;6.20;2.03;;;;;;;;;;5121455;27;20544;-71
2022/12/07 06:26:38;;;;;;;8.77;1.80;;;;;;;;;;5127144;27;20117;-71
2022/12/07 06:29:04;;;;;;;7.53;1.83;;;;;;;;;;5124171;27;20506;-71
2022/12/07 06:31:30;;;;;;;7.68;2.33;;;;;;;;;;5111945;27;20042;-71
2022/12/07 06:34:00;;;;;;;6.93;2.55;;;;;;;;;;5125519;27;20043;-71
2022/12/07 06:36:26;;;;;;;8.35;1.90;;;;;;;;;;5080535;28;20093;-71
2022/12/07 06:38:52;;;;;;;7.32;2.33;;;;;;;;;;5101298;28;20052;-71
2022/12/07 06:41:18;;;;;;;7.53;2.80;;;;;;;;;;5107422;28;20164;-71
2022/12/07 06:43:45;;;;;;;8.27;1.85;;;;;;;;;;5100613;28;20105;-71
2022/12/07 06:46:11;;;;;;;6.68;1.77;;;;;;;;;;5106107;28;20558;-71
2022/12/07 06:48:37;;;;;;;8.80;2.85;;;;;;;;;;5081717;28;20141;-71
2022/12/07 06:51:03;;;;;;;12.38;3.65;;;;;;;;;;5102289;28;20055;-71
2022/12/07 06:53:29;;;;;;;8.13;2.40;;;;;;;;;;5108566;28;20534;-71
2022/12/07 06:55:55;;;;;;;5.90;2.45;;;;;;;;;;5109099;28;20061;-71
2022/12/07 06:58:22;;;;;;;12.55;3.63;;;;;;;;;;5105243;28;20077;-71
2022/12/07 07:00:49;;;;;;;5.05;2.08;;;;;;;;;;5104293;28;20071;-71
2022/12/07 07:03:16;;;;;;;10.35;2.25;;;;;;;;;;5104887;28;20461;-71
2022/12/07 07:05:42;;;;;;;7.68;3.03;;;;;;;;;;5104259;28;20127;-71
2022/12/07 07:08:08;;;;;;;9.30;2.72;;;;;;;;;;5107488;28;20043;-71
2022/12/07 07:10:35;;;;;;;5.18;1.95;;;;;;;;;;5104299;28;20031;-71
2022/12/07 07:13:01;;;;;;;6.07;2.10;;;;;;;;;;5105804;28;20100;-71
2022/12/07 07:15:27;;;;;;;8.27;3.78;;;;;;;;;;5104265;28;20039;-71
2022/12/07 07:17:53;;;;;;;6.95;3.33;;;;;;;;;;5106519;28;20036;-71
2022/12/07 07:20:19;;;;;;;17.05;4.25;;;;;;;;;;5109157;28;20071;-71
2022/12/07 07:22:45;;;;;;;9.73;3.78;;;;;;;;;;5108681;28;20036;-72
2022/12/07 07:25:11;;;;;;;8.45;2.90;;;;;;;;;;5101202;28;20498;-71
2022/12/07 07:27:37;;;;;;;7.40;2.85;;;;;;;;;;5102860;28;20071;-71
2022/12/07 07:30:04;;;;;;;13.50;3.47;;;;;;;;;;5104181;28;20035;-71
2022/12/07 07:32:30;;;;;;;6.78;3.03;;;;;;;;;;5107631;28;20057;-71
2022/12/07 07:34:57;;;;;;;12.40;2.97;;;;;;;;;;5101703;28;20324;-71
2022/12/07 07:37:23;;;;;;;7.43;3.53;;;;;;;;;;5100664;28;20051;-71
2022/12/07 07:39:49;;;;;;;6.38;2.80;;;;;;;;;;5102611;28;20089;-71
2022/12/07 07:42:15;;;;;;;8.98;3.03;;;;;;;;;;5100831;28;20093;-71
2022/12/07 07:44:41;;;;;;;9.75;3.13;;;;;;;;;;5096063;28;20075;-72
2022/12/07 07:47:07;;;;;;;12.25;2.53;;;;;;;;;;5101689;28;20841;-71
2022/12/07 07:49:33;;;;;;;10.27;2.22;;;;;;;;;;5095773;28;20473;-71
2022/12/07 07:52:00;;;;;;;8.95;2.47;;;;;;;;;;5095457;28;20043;-71
2022/12/07 07:54:26;;;;;;;6.07;3.10;;;;;;;;;;5098301;28;20028;-72
2022/12/07 07:56:52;;;;;;;4.55;2.30;;;;;;;;;;5102478;28;20042;-72
2022/12/07 07:59:19;;;;;;;12.48;2.28;;;;;;;;;;5101069;28;20035;-72
2022/12/07 08:01:45;;;;;;;9.60;2.10;;;;;;;;;;5098173;28;20040;-71
2022/12/07 08:04:11;;;;;;;5.57;2.20;;;;;;;;;;5100947;28;20035;-71
2022/12/07 08:06:37;;;;;;;4.45;2.03;;;;;;;;;;5098633;28;20050;-71
2022/12/07 08:09:06;;;;;;;7.65;2.30;;;;;;;;;;5103516;28;20134;-72
2022/12/07 08:11:32;;;;;;;7.57;1.98;;;;;;;;;;5098460;28;20507;-71
2022/12/07 08:13:58;;;;;;;7.80;2.75;;;;;;;;;;5099286;28;20114;-72
2022/12/07 08:16:24;;;;;;;4.90;2.13;;;;;;;;;;5100345;28;20118;-71
2022/12/07 08:18:50;;;;;;;9.70;2.47;;;;;;;;;;5096964;28;20471;-71
2022/12/07 08:21:17;;;;;;;5.22;1.92;;;;;;;;;;5103084;28;20467;-71
2022/12/07 08:23:43;;;;;;;4.22;1.67;;;;;;;;;;5101472;28;20177;-72
2022/12/07 08:26:13;;;;;;;4.80;1.88;;;;;;;;;;5097468;28;20100;-72
2022/12/07 08:28:40;;;;;;;10.98;1.83;;;;;;;;;;5103205;28;20040;-71
2022/12/07 08:31:08;;;;;;;5.18;1.38;;;;;;;;;;5105145;28;20091;-71
2022/12/07 08:33:35;;;;;;;4.32;2.35;;;;;;;;;;5105587;28;20123;-71
2022/12/07 08:36:05;;;;;;;9.98;1.88;;;;;;;;;;5105223;28;20067;-70
2022/12/07 08:38:32;;;;;;;6.88;1.98;;;;;;;;;;5125939;28;20050;-70
2022/12/07 08:40:58;;;;;;;9.02;2.17;;;;;;;;;;5122313;28;20043;-71
2022/12/07 08:43:25;;;;;;;9.25;3.30;;;;;;;;;;5117712;28;20039;-72
2022/12/07 08:45:58;;;;;;;4.78;1.60;;;;;;;;;;5123955;28;20434;-71
2022/12/07 08:48:24;;;;;;;5.85;1.95;;;;;;;;;;5126506;27;20043;-73
2022/12/07 08:50:51;;;;;;;4.97;1.58;;;;;;;;;;5121642;27;20042;-71
2022/12/07 08:53:17;;;;;;;4.53;1.50;;;;;;;;;;5119248;27;20083;-70
2022/12/07 08:55:44;;;;;;;5.70;2.47;;;;;;;;;;5125007;27;20605;-72
2022/12/07 08:58:10;;;;;;;9.77;2.28;;;;;;;;;;5127640;27;20035;-71
2022/12/07 09:00:36;;;;;;;4.53;2.08;;;;;;;;;;5124787;27;20046;-71
2022/12/07 09:03:03;;;;;;;8.00;2.38;;;;;;;;;;5106161;27;20400;-71
2022/12/07 09:05:29;;;;;;;7.47;2.13;;;;;;;;;;5127191;27;20054;-71
2022/12/07 09:07:56;;;;;;;6.90;2.05;;;;;;;;;;5128540;27;20046;-71
2022/12/07 09:10:23;;;;;;;5.40;1.85;;;;;;;;;;5127508;27;20057;-71
2022/12/07 09:12:49;;;;;;;6.20;1.60;;;;;;;;;;5129639;27;20163;-71
2022/12/07 09:15:15;;;;;;;7.75;2.25;;;;;;;;;;5118891;27;20404;-71
2022/12/07 09:17:41;;;;;;;9.32;1.85;;;;;;;;;;5118044;27;20039;-70
2022/12/07 09:20:07;;;;;;;2.72;1.42;;;;;;;;;;5122903;27;20039;-71
2022/12/07 09:22:34;;;;;;;5.38;2.40;;;;;;;;;;5124804;27;20389;-71
2022/12/07 09:25:00;;;;;;;6.60;2.25;;;;;;;;;;5095187;27;20070;-71
2022/12/07 09:27:26;;;;;;;8.52;2.00;;;;;;;;;;5122074;27;20069;-70
2022/12/07 09:29:52;;;;;;;11.55;3.25;;;;;;;;;;5123967;27;20053;-71
2022/12/07 09:32:19;;;;;;;9.25;2.33;;;;;;;;;;5127564;27;20548;-71
2022/12/07 09:34:45;;;;;;;19.73;3.63;;;;;;;;;;5087424;27;20040;-71
2022/12/07 09:37:11;;;;;;;8.73;2.47;;;;;;;;;;5123164;27;20520;-71
2022/12/07 09:39:41;;;;;;;6.35;2.83;;;;;;;;;;5126039;27;20118;-71
2022/12/07 09:42:08;;;;;;;9.10;2.97;;;;;;;;;;5119774;27;20035;-71
2022/12/07 09:44:35;;;;;;;10.25;2.78;;;;;;;;;;5124800;27;20035;-71
2022/12/07 09:47:01;;;;;;;10.88;2.20;;;;;;;;;;5124854;27;20442;-72
2022/12/07 09:49:32;;;;;;;8.60;2.47;;;;;;;;;;5117831;27;20039;-71
2022/12/07 09:52:18;;;;;;;10.45;2.55;;;;;;;;;;5122846;27;20155;-71
2022/12/07 09:54:46;;;;;;;5.50;2.08;;;;;;;;;;5123061;27;20043;-71
2022/12/07 09:57:13;;;;;;;8.23;2.10;;;;;;;;;;5126127;27;20031;-72
2022/12/07 09:59:42;;;;;;;6.20;1.77;;;;;;;;;;5121221;27;20046;-71
2022/12/07 10:02:27;;;;;;;4.93;1.83;;;;;;;;;;5121953;27;20046;-71
2022/12/07 10:04:53;;;;;;;5.07;1.63;;;;;;;;;;5118136;27;20176;-71
2022/12/07 10:07:20;;;;;;;5.63;2.05;;;;;;;;;;5125693;27;20053;-71
2022/12/07 10:09:46;;;;;;;8.05;2.20;;;;;;;;;;5107158;27;20035;-71
2022/12/07 10:12:13;;;;;;;4.18;1.52;;;;;;;;;;5127898;27;20050;-71
2022/12/07 10:14:40;;;;;;;5.07;2.17;;;;;;;;;;5124551;27;20035;-71
2022/12/07 10:17:25;;;;;;;6.30;1.55;;;;;;;;;;5122690;27;20123;-73
2022/12/07 10:19:52;;;;;;;7.40;1.92;;;;;;;;;;5108205;27;20477;-72
2022/12/07 10:22:18;;;;;;;4.40;1.55;;;;;;;;;;5123125;27;20115;-71
2022/12/07 10:24:47;;;;;;;4.18;1.88;;;;;;;;;;5116435;27;20032;-70
2022/12/07 10:27:26;;;;;;;5.88;1.70;;;;;;;;;;5124571;27;20039;-71
2022/12/07 10:29:53;;;;;;;3.72;2.33;;;;;;;;;;5121443;27;20051;-71
2022/12/07 10:32:19;;;;;;;5.93;1.17;;;;;;;;;;5124435;27;20516;-71
2022/12/07 10:34:46;;;;;;;7.10;0.90;;;;;;;;;;5123953;27;20039;-71
2022/12/07 10:37:18;;;;;;;0.73;0.50;;;;;;;;;;5127828;27;20059;-71
2022/12/07 10:39:46;;;;;;;1.45;0.60;;;;;;;;;;5118912;27;20500;-71
2022/12/07 10:42:18;;;;;;;2.08;0.60;;;;;;;;;;5122045;27;20031;-72
2022/12/07 10:44:44;;;;;;;1.25;0.90;;;;;;;;;;5101768;27;20081;-71
2022/12/07 10:47:19;;;;;;;2.58;0.90;;;;;;;;;;5125681;27;20067;-71
2022/12/07 10:49:55;;;;;;;2.60;0.77;;;;;;;;;;5108711;27;20050;-71
2022/12/07 10:52:34;;;;;;;4.90;1.30;;;;;;;;;;5107528;27;20080;-72
2022/12/07 10:55:12;;;;;;;1.63;0.77;;;;;;;;;;5121982;27;20044;-70
2022/12/07 10:57:48;;;;;;;1.95;0.70;;;;;;;;;;5105928;27;20389;-72
2022/12/07 11:00:17;;;;;;;2.45;1.25;;;;;;;;;;5117243;27;20099;-72
2022/12/07 11:02:46;;;;;;;0.80;0.45;;;;;;;;;;5127213;27;20047;-71
2022/12/07 11:05:23;;;;;;;0.82;0.73;;;;;;;;;;5113436;27;20038;-72
2022/12/07 11:08:08;;;;;;;2.95;1.00;;;;;;;;;;5116227;27;20457;-72
2022/12/07 11:10:53;;;;;;;2.85;1.00;;;;;;;;;;5125324;27;20504;-72
2022/12/07 11:13:22;;;;;;;4.88;1.33;;;;;;;;;;5120626;27;20038;-72
2022/12/07 11:16:27;;;;;;;1.55;0.60;;;;;;;;;;5112291;27;20103;-73
2022/12/07 11:19:08;;;;;;;1.10;0.63;;;;;;;;;;5064717;28;20653;-72
2022/12/07 11:21:43;;;;;;;1.63;0.55;;;;;;;;;;5082705;28;20032;-72
2022/12/07 11:24:09;;;;;;;4.55;1.30;;;;;;;;;;5100910;27;20043;-72
2022/12/07 11:26:58;;;;;;;3.97;1.05;;;;;;;;;;5117314;27;20579;-72
2022/12/07 11:29:43;;;;;;;3.53;1.00;;;;;;;;;;5121004;27;20480;-73
2022/12/07 11:32:39;;;;;;;4.63;1.15;;;;;;;;;;5104623;27;20043;-72
2022/12/07 11:35:06;;;;;;;6.60;1.13;;;;;;;;;;5101707;27;20051;-72
2022/12/07 11:37:37;;;;;;;7.07;1.52;;;;;;;;;;5115372;27;20093;-72
2022/12/07 11:40:05;;;;;;;4.97;1.40;;;;;;;;;;5103227;27;20043;-72
2022/12/07 11:42:36;;;;;;;2.70;1.00;;;;;;;;;;5120650;27;20489;-72
2022/12/07 11:45:10;;;;;;;2.97;1.63;;;;;;;;;;5125620;27;20039;-69
2022/12/07 11:47:47;;;;;;;5.70;1.73;;;;;;;;;;5111084;27;20035;-72
2022/12/07 11:50:32;;;;;;;4.10;1.80;;;;;;;;;;5106847;27;20046;-72
2022/12/07 11:53:00;;;;;;;3.65;1.50;;;;;;;;;;5120391;27;20562;-72
2022/12/07 11:55:35;;;;;;;4.63;1.33;;;;;;;;;;5113228;27;20047;-71
2022/12/07 11:58:08;;;;;;;5.32;1.40;;;;;;;;;;5118477;27;20505;-71
2022/12/07 12:00:35;;;;;;;3.60;1.38;;;;;;;;;;5123678;27;20046;-71
2022/12/07 12:03:10;;;;;;;3.20;1.30;;;;;;;;;;5124568;27;20379;-71
2022/12/07 12:05:36;;;;;;;4.03;1.00;;;;;;;;;;5116192;27;20551;-71
2022/12/07 12:08:16;;;;;;;2.78;0.73;;;;;;;;;;5121166;27;20100;-71
2022/12/07 12:10:42;;;;;;;6.10;1.35;;;;;;;;;;5108731;28;20628;-72
2022/12/07 12:13:29;;;;;;;3.83;1.15;;;;;;;;;;5118786;27;20120;-72
2022/12/07 12:16:15;;;;;;;1.90;0.93;;;;;;;;;;5108593;27;20601;-72
2022/12/07 12:18:49;;;;;;;3.40;1.02;;;;;;;;;;5077598;28;20105;-72
2022/12/07 12:21:20;;;;;;;3.22;1.38;;;;;;;;;;5116786;28;20035;-72
2022/12/07 12:23:48;;;;;;;4.38;1.30;;;;;;;;;;5124565;27;20047;-71
2022/12/07 12:26:26;;;;;;;2.38;1.17;;;;;;;;;;5097172;27;20087;-72
2022/12/07 12:29:20;;;;;;;3.88;1.27;;;;;;;;;;5126746;27;20039;-72
2022/12/07 12:31:48;;;;;;;4.22;1.70;;;;;;;;;;5121915;27;20491;-72
2022/12/07 12:34:34;;;;;;;4.20;1.40;;;;;;;;;;5130962;27;20611;-71
2022/12/07 12:37:00;;;;;;;2.67;1.42;;;;;;;;;;5117393;27;20500;-72
2022/12/07 12:39:27;;;;;;;3.35;1.42;;;;;;;;;;5132130;27;20050;-72
2022/12/07 12:44:24;;;;;;;2.78;1.40;;;;;;;;;;5127777;27;20378;-72
2022/12/07 12:46:51;;;;;;;5.38;1.05;;;;;;;;;;5113001;27;20031;-72
2022/12/07 12:49:20;;;;;;;2.17;1.00;;;;;;;;;;5121369;27;20031;-71
2022/12/07 12:51:50;;;;;;;5.15;1.67;;;;;;;;;;5127940;27;20039;-72
2022/12/07 12:54:25;;;;;;;2.20;1.05;;;;;;;;;;5122320;27;20043;-71
2022/12/07 12:57:07;;;;;;;4.22;1.52;;;;;;;;;;5112555;27;20068;-70
2022/12/07 12:59:34;;;;;;;5.07;1.52;;;;;;;;;;5123685;27;20397;-72
2022/12/07 13:02:17;;;;;;;2.17;1.10;;;;;;;;;;5113405;27;20485;-71
2022/12/07 13:04:57;;;;;;;2.92;1.10;;;;;;;;;;5132027;27;20460;-72
2022/12/07 13:07:41;;;;;;;12.35;1.67;;;;;;;;;;5132502;27;20471;-72
2022/12/07 13:10:30;;;;;;;3.63;1.20;;;;;;;;;;5131717;27;20031;-71
2022/12/07 13:13:01;;;;;;;3.38;1.85;;;;;;;;;;5092302;27;20039;-71
2022/12/07 13:15:33;;;;;;;7.40;1.38;;;;;;;;;;5127290;27;20083;-72
2022/12/07 13:18:01;;;;;;;4.83;2.03;;;;;;;;;;5111263;27;20483;-71
2022/12/07 13:20:42;;;;;;;1.52;0.90;;;;;;;;;;5131193;27;20103;-72
2022/12/07 13:23:09;;;;;;;5.68;1.35;;;;;;;;;;5122016;27;20047;-72
2022/12/07 13:25:43;;;;;;;5.63;1.70;;;;;;;;;;5119546;27;20187;-73
2022/12/07 13:28:15;;;;;;;5.10;1.35;;;;;;;;;;5105567;27;20050;-73
2022/12/07 13:30:47;;;;;;;2.47;1.20;;;;;;;;;;5122926;27;20050;-72
2022/12/07 13:33:13;;;;;;;3.43;1.50;;;;;;;;;;5122531;27;20039;-72
2022/12/07 13:35:39;;;;;;;1.65;1.02;;;;;;;;;;5124931;27;20299;-72
2022/12/07 13:38:15;;;;;;;3.20;1.40;;;;;;;;;;5111415;27;20047;-72
2022/12/07 13:40:41;;;;;;;4.65;1.33;;;;;;;;;;5126301;27;20035;-72
2022/12/07 13:43:15;;;;;;;2.88;1.33;;;;;;;;;;5125891;27;20498;-72
2022/12/07 13:45:47;;;;;;;5.70;1.45;;;;;;;;;;5122869;27;20502;-72
2022/12/07 13:48:14;;;;;;;;;;;;;;;;;;5123313;27;20035;-72
2022/12/07 13:50:40;;;;;;;5.50;1.20;;;;;;;;;;5128953;27;19915;-72
2022/12/07 13:53:12;;;;;;;1.38;0.80;;;;;;;;;;5127212;27;20039;-72
2022/12/07 13:55:44;;;;;;;2.38;1.15;;;;;;;;;;5107000;27;20449;-72
2022/12/07 13:58:10;;;;;;;2.85;0.90;;;;;;;;;;5119379;27;20128;-72
2022/12/07 14:00:37;;;;;;;1.70;0.80;;;;;;;;;;5125891;27;20473;-72
2022/12/07 14:03:12;;;;;;;1.20;0.80;;;;;;;;;;5125964;27;20039;-73
2022/12/07 14:05:38;;;;;;;2.67;1.10;;;;;;;;;;5120794;27;20047;-72
2022/12/07 14:08:11;;;;;;;2.20;0.82;;;;;;;;;;5124967;27;20199;-72
2022/12/07 14:10:41;;;;;;;1.70;0.80;;;;;;;;;;5105811;27;20050;-72
2022/12/07 14:13:26;;;;;;;2.33;0.63;;;;;;;;;;5124335;27;20043;-72
2022/12/07 14:15:52;;;;;;;1.27;0.68;;;;;;;;;;5119867;27;20242;-72
2022/12/07 14:18:27;;;;;;;1.17;0.82;;;;;;;;;;5123534;27;20473;-72
2022/12/07 14:21:03;;;;;;;1.98;0.85;;;;;;;;;;5122690;27;20123;-72
2022/12/07 14:23:29;;;;;;;2.30;0.70;;;;;;;;;;5120053;27;20560;-72
2022/12/07 14:26:05;;;;;;;2.35;0.60;;;;;;;;;;5108651;27;20042;-72
2022/12/07 14:28:32;;;;;;;5.30;1.52;;;;;;;;;;5102690;27;20038;-72
2022/12/07 14:30:59;;;;;;;2.00;1.05;;;;;;;;;;5126450;27;20042;-72
2022/12/07 14:33:25;;;;;;;2.20;0.88;;;;;;;;;;5123793;27;20151;-72
2022/12/07 14:35:55;;;;;;;4.75;1.20;;;;;;;;;;5109416;27;20122;-72
2022/12/07 14:38:25;;;;;;;2.42;0.77;;;;;;;;;;5118912;27;20047;-71
2022/12/07 14:40:52;;;;;;;4.55;1.08;;;;;;;;;;5123203;27;20058;-72
2022/12/07 14:43:19;;;;;;;9.77;1.80;;;;;;;;;;5116293;27;20051;-72
2022/12/07 14:45:45;;;;;;;4.80;1.13;;;;;;;;;;5123985;27;20097;-72
2022/12/07 14:48:12;;;;;;;4.57;1.52;;;;;;;;;;5125562;27;20043;-72
2022/12/07 14:50:39;;;;;;;3.30;1.30;;;;;;;;;;5125263;27;20090;-72
2022/12/07 14:53:16;;;;;;;3.08;0.93;;;;;;;;;;5114274;27;20086;-72
2022/12/07 14:55:43;;;;;;;3.10;1.10;;;;;;;;;;5125924;27;20042;-72
2022/12/07 14:58:14;;;;;;;4.47;1.63;;;;;;;;;;5122596;27;20043;-72
2022/12/07 15:00:40;;;;;;;3.55;1.35;;;;;;;;;;5089840;27;20038;-72
2022/12/07 15:03:06;;;;;;;4.68;1.75;;;;;;;;;;5126448;27;20428;-72
2022/12/07 15:05:33;;;;;;;3.75;1.33;;;;;;;;;;5109439;27;20412;-72